Time;durP1;ratioP1;P1;durP2;ratioP2;P2;SDS_P1;SDS_P2;PMS_P1;PMS_P2;Temp;Humidity;BMP_temperature;BMP_pressure;BME280_temperature;BME280_humidity;BME280_pressure;Samples;Min_cycle;Max_cycle;Signal;HPM_P1;HPM_P2
2022/07/20 00:01:28;;;;;;;13.40;8.70;;;;;;;16.65;71.60;101793.14;1666052;84;22016;-83
2022/07/20 00:03:57;;;;;;;16.23;8.78;;;;;;;16.65;71.67;101789.59;1674939;84;21384;-83
2022/07/20 00:06:24;;;;;;;12.75;9.20;;;;;;;16.62;71.66;101786.44;1669635;84;21077;-83
2022/07/20 00:11:36;;;;;;;13.68;8.70;;;;;;;16.56;71.77;101788.11;1673955;84;22134;-83
2022/07/20 00:14:03;;;;;;;13.53;9.45;;;;;;;16.54;71.89;101793.84;1674362;84;21102;-83
2022/07/20 00:16:32;;;;;;;12.82;8.93;;;;;;;16.52;71.98;101792.48;1674169;85;21711;-83
2022/07/20 00:18:59;;;;;;;13.25;8.63;;;;;;;16.48;72.08;101790.20;1664765;84;21821;-83
2022/07/20 00:21:25;;;;;;;12.93;9.03;;;;;;;16.45;72.14;101787.92;1711737;82;21086;-83
2022/07/20 00:23:52;;;;;;;17.90;9.48;;;;;;;16.41;72.25;101782.09;1708127;82;21113;-83
2022/07/20 00:26:19;;;;;;;11.20;9.15;;;;;;;16.38;72.33;101783.36;1683001;83;21294;-83
2022/07/20 00:28:45;;;;;;;11.65;9.00;;;;;;;16.36;72.39;101787.31;1683059;83;21723;-84
2022/07/20 00:31:12;;;;;;;15.08;9.13;;;;;;;16.35;72.51;101790.86;1683167;83;22692;-83
2022/07/20 00:33:39;;;;;;;14.65;8.28;;;;;;;16.33;72.50;101788.61;1687939;83;21067;-83
2022/07/20 00:36:07;;;;;;;11.57;8.73;;;;;;;16.30;72.51;101785.88;1687692;83;21074;-83
2022/07/20 00:38:33;;;;;;;15.30;7.87;;;;;;;16.27;72.56;101785.41;1690934;83;21090;-83
2022/07/20 00:41:00;;;;;;;15.72;8.43;;;;;;;16.26;72.60;101790.69;1690695;83;21439;-82
2022/07/20 00:43:27;;;;;;;13.18;7.97;;;;;;;16.24;72.64;101793.31;1705512;83;22547;-83
2022/07/20 00:45:53;;;;;;;12.93;8.48;;;;;;;16.21;72.65;101797.67;1683131;83;21604;-83
2022/07/20 00:48:20;;;;;;;13.03;8.28;;;;;;;16.18;72.70;101796.27;1675884;84;21548;-83
2022/07/20 00:50:47;;;;;;;14.05;8.90;;;;;;;16.16;72.73;101794.02;1659926;85;21531;-83
2022/07/20 00:53:14;;;;;;;10.68;8.25;;;;;;;16.12;72.80;101793.98;1699962;83;21893;-83
2022/07/20 00:55:41;;;;;;;11.70;8.00;;;;;;;16.12;72.86;101795.72;1683019;83;21755;-83
2022/07/20 00:58:07;;;;;;;13.00;8.58;;;;;;;16.11;72.87;101796.61;1644117;83;21077;-83
2022/07/20 01:00:34;;;;;;;14.60;7.95;;;;;;;16.08;72.88;101796.09;1705220;83;21152;-83
2022/07/20 01:03:01;;;;;;;11.78;8.45;;;;;;;16.06;72.95;101805.80;1683933;83;21674;-83
2022/07/20 01:05:28;;;;;;;7.95;6.62;;;;;;;16.06;73.02;101806.23;1690055;83;21112;-84
2022/07/20 01:07:54;;;;;;;12.60;8.00;;;;;;;16.05;73.03;101805.80;1690729;83;21886;-84
2022/07/20 01:10:21;;;;;;;11.38;8.33;;;;;;;16.03;73.04;101803.10;1695017;82;22066;-84
2022/07/20 01:12:49;;;;;;;11.75;8.15;;;;;;;16.03;73.09;101804.84;1707941;82;21114;-84
2022/07/20 01:15:16;;;;;;;10.55;7.28;;;;;;;16.02;73.11;101804.39;1705024;83;21524;-84
2022/07/20 01:17:43;;;;;;;15.15;8.23;;;;;;;16.00;73.15;101807.45;1711486;82;21073;-83
2022/07/20 01:20:16;;;;;;;9.65;8.18;;;;;;;15.98;73.21;101806.53;1686132;83;21544;-84
2022/07/20 01:22:44;;;;;;;16.17;8.63;;;;;;;15.98;73.22;101805.20;1684176;83;21073;-84
2022/07/20 01:25:11;;;;;;;15.03;8.53;;;;;;;15.94;73.30;101803.80;1691576;81;21030;-84
2022/07/20 01:27:38;;;;;;;12.43;8.28;;;;;;;15.94;73.34;101813.54;1676903;83;21472;-84
2022/07/20 01:30:06;;;;;;;10.45;8.63;;;;;;;15.92;73.36;101809.52;1676838;83;21123;-84
2022/07/20 01:32:33;;;;;;;10.43;8.15;;;;;;;15.90;73.41;101813.02;1676865;85;21724;-84
2022/07/20 01:35:00;;;;;;;11.38;7.72;;;;;;;15.87;73.41;101810.30;1676878;85;21472;-84
2022/07/20 01:37:28;;;;;;;11.28;7.92;;;;;;;15.84;73.49;101820.44;1676864;83;22132;-84
2022/07/20 01:39:55;;;;;;;9.93;8.08;;;;;;;15.83;73.54;101820.39;1677481;85;20995;-83
2022/07/20 01:42:22;;;;;;;10.80;7.92;;;;;;;15.81;73.56;101810.17;1648500;85;21022;-84
2022/07/20 01:44:49;;;;;;;12.03;7.75;;;;;;;15.81;73.60;101813.72;1652316;84;21743;-83
2022/07/20 01:47:16;;;;;;;13.03;8.35;;;;;;;15.79;73.60;101811.47;1648720;85;21015;-83
2022/07/20 01:49:42;;;;;;;12.58;7.83;;;;;;;15.75;73.62;101809.63;1647938;85;21410;-83
2022/07/20 01:52:09;;;;;;;12.13;7.62;;;;;;;15.73;73.68;101812.64;1676626;83;21302;-83
2022/07/20 01:54:36;;;;;;;12.30;7.95;;;;;;;15.73;73.72;101818.88;1676576;83;21051;-83
2022/07/20 01:57:03;;;;;;;12.93;8.18;;;;;;;15.72;73.74;101821.02;1690409;82;22560;-83
2022/07/20 01:59:30;;;;;;;9.83;7.85;;;;;;;15.71;73.79;101818.32;1685268;83;21067;-84
2022/07/20 02:01:57;;;;;;;11.08;7.42;;;;;;;15.68;73.79;101819.61;1686058;83;21081;-84
2022/07/20 02:04:24;;;;;;;11.60;7.53;;;;;;;15.65;73.87;101811.12;1689937;83;21077;-84
2022/07/20 02:06:50;;;;;;;14.38;8.90;;;;;;;15.64;73.91;101808.03;1677613;83;21090;-84
2022/07/20 02:09:17;;;;;;;10.40;7.75;;;;;;;15.63;73.92;101802.23;1679005;83;21739;-84
2022/07/20 02:11:44;;;;;;;13.95;7.97;;;;;;;15.61;73.95;101797.78;1674901;83;21505;-83
2022/07/20 02:14:11;;;;;;;12.43;7.60;;;;;;;15.61;74.03;101793.80;1674928;83;21086;-83
2022/07/20 02:16:37;;;;;;;13.98;7.83;;;;;;;15.60;74.06;101797.30;1674751;83;21801;-84
2022/07/20 02:19:04;;;;;;;10.70;7.40;;;;;;;15.59;74.08;101796.41;1680825;83;21026;-84
2022/07/20 02:21:31;;;;;;;12.15;7.85;;;;;;;15.58;74.13;101799.03;1692822;82;22572;-84
2022/07/20 02:23:57;;;;;;;11.85;7.37;;;;;;;15.54;74.11;101804.70;1674954;83;21035;-84
2022/07/20 02:26:24;;;;;;;11.20;7.80;;;;;;;15.51;74.14;101804.66;1664071;84;21162;-83
2022/07/20 02:29:00;;;;;;;9.75;7.97;;;;;;;15.49;74.17;101795.77;1663357;83;21734;-84
2022/07/20 02:31:27;;;;;;;13.55;8.10;;;;;;;15.49;74.23;101800.63;1655081;83;21078;-84
2022/07/20 02:33:54;;;;;;;10.93;7.45;;;;;;;15.49;74.20;101804.61;1663770;83;21706;-84
2022/07/20 02:36:20;;;;;;;12.13;7.37;;;;;;;15.48;74.21;101806.79;1658201;84;21132;-83
2022/07/20 02:38:47;;;;;;;10.90;6.90;;;;;;;15.48;74.25;101811.20;1660140;83;21121;-84
2022/07/20 02:41:14;;;;;;;13.43;7.80;;;;;;;15.48;74.22;101808.11;1673868;83;21110;-83
2022/07/20 02:43:40;;;;;;;11.55;7.00;;;;;;;15.45;74.17;101803.20;1663710;83;21165;-83
2022/07/20 02:46:07;;;;;;;8.83;7.37;;;;;;;15.51;74.20;101817.48;1663781;83;22613;-83
2022/07/20 02:48:34;;;;;;;9.18;7.03;;;;;;;15.55;74.20;101831.27;1663435;83;21635;-84
2022/07/20 02:51:00;;;;;;;9.80;6.72;;;;;;;15.59;74.22;101834.89;1663509;83;20987;-83
2022/07/20 02:53:27;;;;;;;9.90;6.87;;;;;;;15.64;74.21;101827.94;1666290;83;21070;-84
2022/07/20 02:55:54;;;;;;;9.45;6.83;;;;;;;15.68;74.16;101823.15;1666900;83;21105;-83
2022/07/20 02:58:21;;;;;;;10.23;6.92;;;;;;;15.75;74.13;101828.20;1705780;82;21765;-84
2022/07/20 03:00:48;;;;;;;11.03;7.10;;;;;;;15.81;74.04;101840.27;1663182;83;21141;-84
2022/07/20 03:03:14;;;;;;;10.65;6.70;;;;;;;15.81;73.99;101834.96;1663542;83;21117;-84
2022/07/20 03:05:41;;;;;;;12.03;7.37;;;;;;;15.89;74.03;101837.77;1675949;84;21106;-84
2022/07/20 03:08:08;;;;;;;9.63;6.90;;;;;;;15.95;73.95;101841.87;1667339;83;21189;-84
2022/07/20 03:10:34;;;;;;;13.43;7.92;;;;;;;16.00;73.92;101848.17;1663570;83;21680;-85
2022/07/20 03:13:01;;;;;;;9.73;7.17;;;;;;;16.06;73.81;101838.11;1663586;83;21413;-84
2022/07/20 03:15:28;;;;;;;10.55;8.18;;;;;;;16.12;73.75;101836.89;1663672;83;21413;-84
2022/07/20 03:17:54;;;;;;;10.63;7.03;;;;;;;16.21;73.67;101838.84;1663631;83;21069;-84
2022/07/20 03:20:24;;;;;;;9.80;7.50;;;;;;;16.28;73.59;101838.98;1663716;83;21106;-84
2022/07/20 03:22:51;;;;;;;13.25;6.67;;;;;;;16.37;73.44;101842.27;1644181;84;21751;-84
2022/07/20 03:25:18;;;;;;;10.80;7.58;;;;;;;16.47;73.34;101833.58;1654587;83;21660;-84
2022/07/20 03:27:44;;;;;;;9.83;7.03;;;;;;;16.60;73.27;101841.34;1681551;85;21062;-84
2022/07/20 03:30:13;;;;;;;13.05;7.37;;;;;;;16.74;73.10;101840.23;1695514;83;21068;-84
2022/07/20 03:32:39;;;;;;;9.50;6.53;;;;;;;16.87;72.87;101844.95;1680934;84;21022;-83
2022/07/20 03:35:06;;;;;;;11.00;6.97;;;;;;;17.04;72.74;101846.97;1698388;83;21677;-83
2022/07/20 03:37:33;;;;;;;10.40;7.12;;;;;;;17.25;72.58;101849.98;1677652;84;21074;-84
2022/07/20 03:40:00;;;;;;;11.45;6.67;;;;;;;17.48;72.39;101847.64;1680958;84;21125;-84
2022/07/20 03:42:27;;;;;;;10.98;7.65;;;;;;;17.76;72.10;101854.67;1682564;84;21878;-84
2022/07/20 03:44:57;;;;;;;7.72;6.83;;;;;;;18.04;71.74;101859.05;1692825;83;21074;-84
2022/07/20 03:47:24;;;;;;;9.40;6.78;;;;;;;18.37;71.30;101861.63;1679981;84;21708;-84
2022/07/20 03:49:51;;;;;;;8.88;6.22;;;;;;;18.90;71.66;101855.96;1676884;84;21063;-84
2022/07/20 03:52:18;;;;;;;8.58;6.25;;;;;;;20.03;71.85;101852.61;1679759;84;21535;-84
2022/07/20 03:54:45;;;;;;;9.28;6.20;;;;;;;21.31;71.02;101852.33;1677036;84;21583;-84
2022/07/20 03:57:13;;;;;;;11.57;6.62;;;;;;;22.57;69.41;101862.54;1682903;84;21490;-84
2022/07/20 03:59:41;;;;;;;9.75;6.67;;;;;;;23.70;67.66;101869.58;1676980;84;22583;-84
2022/07/20 04:02:08;;;;;;;6.90;5.65;;;;;;;24.71;66.06;101865.55;1683183;83;21092;-85
2022/07/20 04:04:34;;;;;;;7.12;5.25;;;;;;;25.64;64.50;101867.95;1666562;83;21113;-85
2022/07/20 04:07:01;;;;;;;7.30;5.90;;;;;;;26.59;62.70;101868.58;1639376;84;21114;-83
2022/07/20 04:09:46;;;;;;;7.17;5.80;;;;;;;27.33;60.94;101869.48;1653693;84;21517;-83
2022/07/20 04:12:20;;;;;;;8.58;5.85;;;;;;;28.04;59.00;101877.84;1705453;82;21709;-82
2022/07/20 04:14:47;;;;;;;7.05;5.70;;;;;;;28.73;57.18;101876.61;1681367;84;21477;-83
2022/07/20 04:17:13;;;;;;;12.13;5.80;;;;;;;29.32;55.87;101878.21;1687704;83;21022;-83
2022/07/20 04:19:40;;;;;;;9.05;6.00;;;;;;;29.93;54.47;101875.10;1717602;83;21061;-83
2022/07/20 04:22:07;;;;;;;7.50;5.45;;;;;;;30.51;52.98;101880.97;1700410;83;21112;-84
2022/07/20 04:24:33;;;;;;;8.25;5.95;;;;;;;31.03;51.77;101881.11;1680341;82;21717;-84
2022/07/20 04:27:00;;;;;;;7.87;5.53;;;;;;;31.49;50.45;101884.56;1675684;83;21154;-84
2022/07/20 04:29:27;;;;;;;7.75;5.47;;;;;;;31.94;49.13;101893.81;1676150;84;21518;-83
2022/07/20 04:31:54;;;;;;;9.40;5.22;;;;;;;32.33;48.15;101892.02;1667270;84;21170;-84
2022/07/20 04:34:21;;;;;;;6.12;5.53;;;;;;;32.70;47.25;101886.16;1668174;85;21586;-84
2022/07/20 04:36:47;;;;;;;8.48;5.72;;;;;;;33.07;46.14;101887.89;1667602;84;22600;-84
2022/07/20 04:39:14;;;;;;;11.22;5.75;;;;;;;33.53;45.62;101880.99;1667527;85;21085;-84
2022/07/20 04:41:41;;;;;;;5.53;4.97;;;;;;;34.16;44.59;101878.46;1667440;84;21092;-84
2022/07/20 04:44:08;;;;;;;5.65;4.97;;;;;;;34.70;43.46;101880.82;1652294;84;21509;-84
2022/07/20 04:46:34;;;;;;;5.17;4.62;;;;;;;35.00;42.30;101879.97;1667675;85;20965;-84
2022/07/20 04:49:01;;;;;;;7.20;5.35;;;;;;;35.38;41.86;101885.88;1668039;84;22582;-84
2022/07/20 04:51:28;;;;;;;5.92;5.05;;;;;;;35.78;40.77;101886.63;1667964;85;21007;-84
2022/07/20 04:53:55;;;;;;;6.78;4.87;;;;;;;36.04;40.22;101886.31;1668507;85;22039;-85
2022/07/20 04:56:22;;;;;;;6.83;5.00;;;;;;;36.49;39.58;101890.24;1668528;85;21206;-85
2022/07/20 04:58:52;;;;;;;11.00;5.03;;;;;;;36.81;38.76;101891.34;1668556;85;21073;-85
2022/07/20 05:01:17;;;;;;;9.95;4.72;;;;;;;37.06;38.23;101894.66;1683891;83;21793;-85
2022/07/20 05:03:44;;;;;;;6.97;4.40;;;;;;;37.38;37.48;101895.68;1678593;84;20987;-85
2022/07/20 05:06:11;;;;;;;6.53;4.80;;;;;;;37.79;36.76;101891.37;1683132;83;21576;-85
2022/07/20 05:08:38;;;;;;;10.70;5.03;;;;;;;37.98;36.14;101892.27;1678694;83;21059;-85
2022/07/20 05:11:05;;;;;;;8.35;4.47;;;;;;;38.18;35.47;101886.72;1708302;82;21089;-85
2022/07/20 05:13:32;;;;;;;10.10;4.47;;;;;;;38.34;34.52;101887.81;1684651;83;22558;-85
2022/07/20 05:15:59;;;;;;;8.73;4.33;;;;;;;38.52;34.35;101888.30;1651943;84;21114;-85
2022/07/20 05:18:26;;;;;;;7.97;4.40;;;;;;;38.84;33.68;101894.12;1672007;84;21751;-85
2022/07/20 05:20:52;;;;;;;10.03;4.45;;;;;;;39.10;33.32;101899.52;1635615;86;21083;-85
2022/07/20 05:23:19;;;;;;;6.85;4.25;;;;;;;39.36;32.64;101900.69;1705078;83;21073;-84
2022/07/20 05:25:46;;;;;;;13.03;4.78;;;;;;;39.55;32.21;101900.12;1703178;82;22183;-85
2022/07/20 05:28:18;;;;;;;6.62;4.55;;;;;;;39.64;31.62;101894.77;1677921;83;21074;-85
2022/07/20 05:30:48;;;;;;;7.78;3.95;;;;;;;39.82;31.60;101897.03;1674524;83;21557;-85
2022/07/20 05:33:15;;;;;;;9.50;4.00;;;;;;;40.23;31.03;101899.66;1679251;83;21059;-85
2022/07/20 05:35:42;;;;;;;7.58;3.98;;;;;;;40.40;30.56;101897.77;1677995;83;21023;-85
2022/07/20 05:38:08;;;;;;;6.25;4.42;;;;;;;40.47;30.15;101904.14;1678724;83;22535;-85
2022/07/20 05:40:35;;;;;;;7.92;3.90;;;;;;;40.59;30.04;101899.84;1678098;83;20936;-85
2022/07/20 05:43:02;;;;;;;7.03;3.87;;;;;;;40.76;29.70;101901.67;1676763;83;21052;-85
2022/07/20 05:45:28;;;;;;;5.60;3.90;;;;;;;40.65;29.30;101902.59;1676410;83;21471;-84
2022/07/20 05:47:55;;;;;;;7.35;4.60;;;;;;;39.41;28.44;101902.08;1676757;83;20939;-84
2022/07/20 05:50:22;;;;;;;12.58;4.45;;;;;;;37.30;28.91;101900.34;1679508;83;22584;-84
2022/07/20 05:52:48;;;;;;;5.35;4.10;;;;;;;35.48;29.68;101899.87;1677873;83;21483;-84
2022/07/20 05:55:15;;;;;;;6.42;4.50;;;;;;;33.95;30.60;101900.11;1678761;83;20971;-85
2022/07/20 05:57:42;;;;;;;7.12;5.05;;;;;;;32.78;31.68;101898.04;1675369;83;22159;-84
2022/07/20 06:00:09;;;;;;;8.30;4.40;;;;;;;31.92;32.27;101905.73;1674994;83;21588;-85
2022/07/20 06:02:36;;;;;;;14.53;4.35;;;;;;;31.02;32.97;101902.47;1678424;83;22638;-84
2022/07/20 06:05:04;;;;;;;11.48;4.58;;;;;;;30.19;33.85;101901.24;1682220;83;21199;-83
2022/07/20 06:07:30;;;;;;;8.10;4.50;;;;;;;29.54;34.57;101899.55;1676019;83;21077;-84
2022/07/20 06:09:57;;;;;;;12.90;4.75;;;;;;;29.02;35.23;101898.67;1678212;83;21082;-84
2022/07/20 06:12:24;;;;;;;6.70;4.50;;;;;;;28.56;36.02;101894.28;1675106;83;21082;-84
2022/07/20 06:14:51;;;;;;;8.48;4.10;;;;;;;28.29;36.60;101896.91;1674859;83;22695;-84
2022/07/20 06:17:17;;;;;;;14.33;4.08;;;;;;;28.04;36.72;101902.64;1674478;83;21079;-83
2022/07/20 06:19:44;;;;;;;5.85;3.72;;;;;;;27.73;37.07;101900.80;1675296;83;21588;-84
2022/07/20 06:22:11;;;;;;;7.28;3.85;;;;;;;27.51;37.32;101904.09;1675030;83;21552;-84
2022/07/20 06:24:38;;;;;;;8.03;3.75;;;;;;;27.30;37.53;101902.87;1682761;83;21162;-84
2022/07/20 06:27:04;;;;;;;12.37;4.20;;;;;;;27.13;37.78;101906.45;1681200;83;21764;-84
2022/07/20 06:29:31;;;;;;;7.28;4.08;;;;;;;26.99;37.91;101911.31;1683893;83;21107;-84
2022/07/20 06:31:58;;;;;;;6.70;4.22;;;;;;;26.84;38.25;101905.83;1683504;84;21099;-84
2022/07/20 06:34:25;;;;;;;9.18;4.05;;;;;;;26.71;38.27;101911.55;1668726;85;21183;-84
2022/07/20 06:36:52;;;;;;;12.10;4.47;;;;;;;26.57;38.34;101910.94;1669423;85;21164;-84
2022/07/20 06:39:19;;;;;;;8.55;4.28;;;;;;;26.50;38.75;101916.05;1674418;84;22261;-84
2022/07/20 06:41:45;;;;;;;7.97;4.37;;;;;;;26.41;39.01;101912.20;1674729;85;21675;-84
2022/07/20 06:44:12;;;;;;;6.08;4.33;;;;;;;26.32;39.25;101914.67;1674927;84;21026;-83
2022/07/20 06:46:39;;;;;;;7.22;3.95;;;;;;;26.24;39.65;101905.83;1672736;85;21702;-83
2022/07/20 06:49:06;;;;;;;6.90;3.67;;;;;;;26.21;39.96;101914.90;1668253;84;21598;-84
2022/07/20 06:51:33;;;;;;;5.12;3.83;;;;;;;26.21;40.17;101910.85;1674815;84;21751;-84
2022/07/20 06:53:59;;;;;;;9.20;4.90;;;;;;;26.16;40.30;101914.98;1674939;84;21087;-83
2022/07/20 06:56:26;;;;;;;6.62;4.17;;;;;;;26.05;40.51;101913.44;1675209;84;21488;-84
2022/07/20 06:58:53;;;;;;;7.95;4.62;;;;;;;26.00;40.97;101905.46;1674831;85;21092;-84
2022/07/20 07:01:20;;;;;;;10.30;4.37;;;;;;;25.99;41.26;101910.41;1653506;85;21135;-84
2022/07/20 07:03:47;;;;;;;11.68;4.15;;;;;;;25.96;41.53;101906.45;1672473;84;21755;-84
2022/07/20 07:06:16;;;;;;;5.62;3.77;;;;;;;25.98;41.72;101914.05;1675026;84;21652;-84
2022/07/20 07:08:43;;;;;;;6.35;4.33;;;;;;;26.01;41.82;101905.88;1672373;84;21108;-84
2022/07/20 07:11:10;;;;;;;6.72;4.35;;;;;;;25.98;41.80;101905.48;1668787;83;21523;-84
2022/07/20 07:13:37;;;;;;;5.97;4.30;;;;;;;25.95;41.87;101904.19;1673227;84;20988;-84
2022/07/20 07:16:05;;;;;;;7.40;4.03;;;;;;;25.90;41.77;101906.09;1674486;84;22929;-84
2022/07/20 07:18:31;;;;;;;8.05;4.42;;;;;;;25.89;41.95;101906.11;1671907;85;21538;-83
2022/07/20 07:20:58;;;;;;;10.35;4.72;;;;;;;25.85;41.88;101908.45;1673413;84;21124;-84
2022/07/20 07:23:27;;;;;;;7.80;6.37;;;;;;;25.89;42.23;101906.98;1674805;85;21673;-84
2022/07/20 07:25:54;;;;;;;7.83;4.65;;;;;;;25.94;42.35;101902.43;1676008;84;21095;-84
2022/07/20 07:28:23;;;;;;;5.97;4.72;;;;;;;25.94;42.36;101907.83;1693748;83;21294;-84
2022/07/20 07:30:50;;;;;;;6.03;4.20;;;;;;;25.98;42.77;101908.66;1687493;84;21143;-84
2022/07/20 07:33:17;;;;;;;6.25;4.12;;;;;;;26.05;42.91;101904.87;1687720;84;21106;-84
2022/07/20 07:35:47;;;;;;;11.85;4.30;;;;;;;26.13;42.98;101906.09;1687582;83;21527;-84
2022/07/20 07:38:14;;;;;;;5.97;4.40;;;;;;;26.17;42.93;101896.53;1664288;84;21095;-84
2022/07/20 07:40:41;;;;;;;9.60;6.92;;;;;;;26.16;43.05;101901.48;1687479;84;21753;-84
2022/07/20 07:43:08;;;;;;;10.25;4.58;;;;;;;26.18;43.10;101901.02;1687247;83;21115;-84
2022/07/20 07:45:35;;;;;;;8.88;4.35;;;;;;;26.23;43.30;101905.42;1687147;84;21087;-84
2022/07/20 07:48:02;;;;;;;6.83;3.87;;;;;;;26.29;43.45;101904.81;1687384;83;21059;-83
2022/07/20 07:50:29;;;;;;;8.18;4.08;;;;;;;26.34;43.41;101900.67;1686261;83;21086;-84
2022/07/20 07:52:56;;;;;;;6.53;4.35;;;;;;;26.37;43.22;101901.94;1684768;84;21759;-84
2022/07/20 07:55:28;;;;;;;8.03;4.10;;;;;;;26.31;42.84;101904.31;1687354;84;21067;-84
2022/07/20 07:57:55;;;;;;;7.47;4.15;;;;;;;26.31;42.98;101904.31;1687630;83;21087;-84
2022/07/20 08:00:23;;;;;;;6.87;3.90;;;;;;;26.37;43.16;101907.33;1670600;83;39030;-84
2022/07/20 08:02:50;;;;;;;5.45;4.00;;;;;;;26.44;43.06;101898.17;1687622;84;21106;-83
2022/07/20 08:05:16;;;;;;;8.55;4.42;;;;;;;26.44;42.90;101896.83;1687839;83;22636;-85
2022/07/20 08:07:43;;;;;;;9.15;6.03;;;;;;;26.43;42.71;101896.42;1687511;83;21027;-84
2022/07/20 08:10:10;;;;;;;8.63;3.80;;;;;;;26.41;42.60;101892.88;1687735;84;21532;-84
2022/07/20 08:12:37;;;;;;;5.30;3.62;;;;;;;26.42;42.57;101887.87;1687932;83;21573;-83
2022/07/20 08:15:05;;;;;;;5.78;4.35;;;;;;;26.49;42.87;101892.69;1687992;83;21556;-84
2022/07/20 08:17:35;;;;;;;5.15;4.55;;;;;;;26.55;42.58;101895.23;1685585;83;21782;-84
2022/07/20 08:20:05;;;;;;;5.70;3.85;;;;;;;26.56;42.36;101895.20;1687383;84;21111;-84
2022/07/20 08:22:32;;;;;;;7.45;3.52;;;;;;;26.50;42.41;101896.71;1683804;83;21159;-83
2022/07/20 08:24:59;;;;;;;11.80;3.87;;;;;;;26.52;42.52;101901.61;1696973;84;21153;-83
2022/07/20 08:27:26;;;;;;;7.53;4.95;;;;;;;26.57;42.44;101900.14;1678815;83;21072;-84
2022/07/20 08:29:58;;;;;;;7.33;3.75;;;;;;;26.54;42.22;101898.84;1684544;84;21856;-84
2022/07/20 08:32:22;;;;;;;8.18;4.53;;;;;;;26.48;42.15;101901.70;1679635;84;21446;-83
2022/07/20 08:34:48;;;;;;;7.40;3.98;;;;;;;26.45;42.14;101900.44;1692278;83;21539;-84
2022/07/20 08:37:15;;;;;;;5.28;3.85;;;;;;;26.43;42.16;101901.81;1704650;83;21056;-83
2022/07/20 08:39:42;;;;;;;7.05;4.03;;;;;;;26.41;42.11;101903.67;1687077;84;22322;-83
2022/07/20 08:42:11;;;;;;;9.90;6.67;;;;;;;26.40;42.37;101903.70;1699780;83;22623;-84
2022/07/20 08:44:44;;;;;;;6.75;3.65;;;;;;;26.45;42.30;101895.92;1698801;82;22077;-83
2022/07/20 08:47:13;;;;;;;8.18;4.30;;;;;;;26.50;42.24;101898.50;1690153;83;21178;-83
2022/07/20 08:49:44;;;;;;;10.50;4.00;;;;;;;26.55;42.35;101902.87;1696436;83;21472;-84
2022/07/20 08:52:11;;;;;;;8.45;4.35;;;;;;;26.60;42.31;101904.16;1680223;83;21091;-84
2022/07/20 08:54:38;;;;;;;12.45;4.40;;;;;;;26.60;42.07;101898.76;1687852;83;21729;-83
2022/07/20 08:57:12;;;;;;;5.62;3.92;;;;;;;26.61;42.14;101899.16;1687426;83;21024;-84
2022/07/20 08:59:38;;;;;;;9.58;4.80;;;;;;;26.64;42.19;101894.17;1673588;85;21045;-84
2022/07/20 09:02:08;;;;;;;5.85;5.17;;;;;;;26.69;42.26;101894.49;1687001;84;21038;-84
2022/07/20 09:04:58;;;;;;;5.87;4.35;;;;;;;26.77;42.13;101902.41;1661153;85;21029;-84
2022/07/20 09:07:43;;;;;;;5.22;4.25;;;;;;;26.74;41.97;101895.24;1697546;83;21716;-84
2022/07/20 09:10:13;;;;;;;9.00;4.28;;;;;;;26.75;41.99;101892.10;1685479;83;20997;-84
2022/07/20 09:13:02;;;;;;;6.75;4.28;;;;;;;26.80;42.15;101896.91;1696874;83;20980;-84
2022/07/20 09:15:47;;;;;;;7.00;3.80;;;;;;;26.84;42.10;101889.61;1690541;84;21056;-84
2022/07/20 09:18:21;;;;;;;5.25;4.00;;;;;;;26.88;41.97;101888.61;1614647;87;21097;-83
2022/07/20 09:21:04;;;;;;;8.83;4.12;;;;;;;26.94;42.13;101889.83;1610766;88;21914;-84
2022/07/20 09:23:43;;;;;;;8.93;4.47;;;;;;;26.96;41.99;101887.97;1613329;87;21123;-83
2022/07/20 09:26:15;;;;;;;4.92;4.12;;;;;;;26.96;41.94;101886.62;1602411;87;21152;-83
2022/07/20 09:28:53;;;;;;;7.95;5.75;;;;;;;26.92;41.75;101877.70;1589683;87;21662;-83
2022/07/20 09:31:35;;;;;;;6.78;4.47;;;;;;;26.91;41.78;101887.19;1583434;87;21136;-83
2022/07/20 09:34:09;;;;;;;7.87;4.72;;;;;;;26.96;41.86;101886.15;1577602;89;21803;-83
2022/07/20 09:36:40;;;;;;;5.97;3.83;;;;;;;27.00;41.86;101885.61;1595403;88;21073;-91
2022/07/20 09:39:17;;;;;;;6.97;4.05;;;;;;;27.00;41.77;101878.86;1594218;87;21120;-90
2022/07/20 09:41:58;;;;;;;9.30;7.53;;;;;;;27.02;41.77;101882.88;1594677;87;21676;-90
2022/07/20 09:44:27;;;;;;;7.45;4.53;;;;;;;27.04;41.94;101883.72;1588395;87;21053;-89
2022/07/20 09:46:54;;;;;;;10.95;5.47;;;;;;;27.14;42.34;101890.20;1594368;87;21729;-90
2022/07/20 09:49:21;;;;;;;7.75;3.77;;;;;;;27.25;42.16;101886.31;1564934;89;21698;-90
2022/07/20 09:51:56;;;;;;;7.60;4.17;;;;;;;27.33;42.15;101874.41;1594553;87;21101;-90
2022/07/20 09:54:24;;;;;;;4.80;3.85;;;;;;;27.42;42.11;101877.78;1618692;83;21467;-90
2022/07/20 09:56:51;;;;;;;6.83;4.45;;;;;;;27.52;42.20;101877.48;1649888;84;21032;-90
2022/07/20 09:59:18;;;;;;;5.80;4.45;;;;;;;27.64;42.17;101884.84;1661166;85;22928;-89
2022/07/20 10:01:53;;;;;;;10.32;8.15;;;;;;;27.72;41.98;101874.23;1664668;83;21017;-90
2022/07/20 10:04:23;;;;;;;6.72;5.05;;;;;;;27.77;41.57;101876.78;1677161;83;21099;-90
2022/07/20 10:06:52;;;;;;;5.75;4.53;;;;;;;27.77;41.65;101872.73;1671301;85;21107;-89
2022/07/20 10:09:26;;;;;;;4.87;4.30;;;;;;;27.83;41.75;101877.95;1688425;83;21101;-91
2022/07/20 10:11:53;;;;;;;9.45;5.45;;;;;;;27.91;41.85;101880.02;1667403;84;21749;-89
2022/07/20 10:14:21;;;;;;;5.65;4.85;;;;;;;27.98;41.35;101874.41;1675001;84;21091;-89
2022/07/20 10:16:54;;;;;;;7.10;4.85;;;;;;;27.96;41.23;101877.64;1695728;83;21033;-89
2022/07/20 10:19:36;;;;;;;9.80;6.37;;;;;;;28.00;41.21;101878.84;1671490;84;21150;-89
2022/07/20 10:22:02;;;;;;;8.90;5.58;;;;;;;27.97;41.06;101853.68;1599587;85;21100;-90
2022/07/20 10:24:31;;;;;;;6.00;4.33;;;;;;;28.07;41.07;101870.95;1649690;85;21905;-91
2022/07/20 10:27:28;;;;;;;7.28;4.90;;;;;;;28.12;40.73;101877.60;1677802;83;21186;-89
2022/07/20 10:29:57;;;;;;;5.30;4.17;;;;;;;28.14;40.72;101878.88;1658656;84;21076;-89
2022/07/20 10:32:28;;;;;;;6.55;4.20;;;;;;;28.16;40.42;101879.27;1672053;85;21346;-91
2022/07/20 10:34:59;;;;;;;6.10;4.15;;;;;;;28.10;40.26;101880.34;1674118;84;21569;-90
2022/07/20 10:37:41;;;;;;;7.30;4.45;;;;;;;28.08;40.35;101881.30;1675347;84;22464;-90
2022/07/20 10:40:22;;;;;;;6.55;4.67;;;;;;;28.08;40.44;101882.66;1699445;83;21182;-90
2022/07/20 10:43:14;;;;;;;6.60;4.75;;;;;;;28.11;40.45;101878.05;1670124;84;21770;-90
2022/07/20 10:45:41;;;;;;;5.35;3.95;;;;;;;28.15;40.33;101880.19;1672169;85;21577;-90
2022/07/20 10:48:15;;;;;;;5.15;4.12;;;;;;;28.19;40.25;101874.22;1671309;84;21094;-89
2022/07/20 10:51:00;;;;;;;6.17;4.30;;;;;;;28.19;40.23;101875.58;1684660;84;21763;-89
2022/07/20 10:53:32;;;;;;;6.78;4.53;;;;;;;28.18;40.24;101880.59;1669850;85;21527;-89
2022/07/20 10:56:06;;;;;;;4.05;3.67;;;;;;;28.21;40.35;101878.67;1667628;85;21118;-90
2022/07/20 10:58:38;;;;;;;5.30;3.80;;;;;;;28.21;40.22;101873.26;1649228;85;21642;-89
2022/07/20 11:01:12;;;;;;;5.75;3.87;;;;;;;28.28;40.66;101873.94;1671522;85;21524;-89
2022/07/20 11:03:49;;;;;;;7.60;4.03;;;;;;;28.38;40.65;101874.08;1652192;85;21776;-89
2022/07/20 11:06:21;;;;;;;5.00;3.47;;;;;;;28.46;40.50;101880.61;1676142;84;22107;-89
2022/07/20 11:09:04;;;;;;;5.12;4.10;;;;;;;28.52;40.48;101879.08;1658140;84;21105;-90
2022/07/20 11:11:34;;;;;;;4.92;3.67;;;;;;;28.58;40.41;101884.77;1626302;85;21162;-87
2022/07/20 11:14:05;;;;;;;6.83;4.80;;;;;;;28.58;40.18;101887.47;1695854;83;21094;-90
2022/07/20 11:16:36;;;;;;;7.00;4.50;;;;;;;28.55;40.18;101876.73;1649692;86;21119;-90
2022/07/20 11:19:09;;;;;;;9.25;6.17;;;;;;;28.54;40.02;101879.91;1638913;84;21661;-89
2022/07/20 11:21:40;;;;;;;5.17;4.55;;;;;;;28.49;39.95;101880.04;1668348;84;21118;-90
2022/07/20 11:24:27;;;;;;;6.00;3.95;;;;;;;28.48;40.01;101879.61;1665844;84;21162;-90
2022/07/20 11:27:04;;;;;;;4.35;3.58;;;;;;;28.49;40.13;101875.07;1682273;83;21133;-90
2022/07/20 11:29:31;;;;;;;8.63;3.90;;;;;;;28.51;40.13;101869.12;1646048;85;22005;-90
2022/07/20 11:32:12;;;;;;;4.45;3.62;;;;;;;28.60;40.12;101877.47;1667340;84;21024;-91